Time;durP1;ratioP1;P1;durP2;ratioP2;P2;SDS_P1;SDS_P2;PMS_P1;PMS_P2;Temp;Humidity;BMP_temperature;BMP_pressure;BME280_temperature;BME280_humidity;BME280_pressure;Samples;Min_cycle;Max_cycle;Signal;HPM_P1;HPM_P2
2022/04/18 00:04:42;;;;;;;;;;;9.60;1.00;;;;;;10373658;28;84983;-48
2022/04/18 00:09:43;;;;;;;;;;;9.50;1.00;;;;;;10372036;28;84965;-47
2022/04/18 00:14:44;;;;;;;;;;;9.50;1.00;;;;;;10372181;28;84384;-49
2022/04/18 00:19:44;;;;;;;;;;;9.30;1.00;;;;;;10353746;28;84116;-47
2022/04/18 00:24:45;;;;;;;;;;;9.30;1.00;;;;;;10373138;28;84147;-48
2022/04/18 00:29:47;;;;;;;;;;;9.20;1.00;;;;;;10352035;28;86007;-50
2022/04/18 00:34:48;;;;;;;;;;;9.10;1.00;;;;;;10353732;28;85242;-47
2022/04/18 00:39:48;;;;;;;;;;;9.10;1.00;;;;;;10353172;28;87007;-47
2022/04/18 00:44:49;;;;;;;;;;;9.10;1.00;;;;;;10372416;28;84873;-48
2022/04/18 00:49:50;;;;;;;;;;;9.00;1.00;;;;;;10370889;28;84708;-51
2022/04/18 00:54:51;;;;;;;;;;;8.90;1.00;;;;;;10372315;28;84200;-48
2022/04/18 00:59:52;;;;;;;;;;;8.90;1.00;;;;;;10352044;28;87122;-48
2022/04/18 01:04:52;;;;;;;;;;;8.90;1.00;;;;;;10353640;28;86543;-50
2022/04/18 01:09:53;;;;;;;;;;;8.90;21.20;;;;;;10352168;28;86930;-47
2022/04/18 01:14:54;;;;;;;;;;;8.90;99.90;;;;;;10353573;28;85974;-48
2022/04/18 01:20:14;;;;;;;;;;;8.80;99.90;;;;;;10370166;28;84064;-46
2022/04/18 01:30:44;;;;;;;;;;;8.70;99.90;;;;;;10352151;28;86802;-48
2022/04/18 01:35:46;;;;;;;;;;;8.70;1.00;;;;;;10351460;28;87191;-47
2022/04/18 01:40:46;;;;;;;;;;;8.70;1.00;;;;;;10351990;28;86008;-47
2022/04/18 01:45:47;;;;;;;;;;;8.60;1.00;;;;;;10351198;28;86605;-47
2022/04/18 01:51:01;;;;;;;;;;;8.50;1.00;;;;;;10351776;28;85789;-45
2022/04/18 01:56:03;;;;;;;;;;;8.50;99.90;;;;;;10351016;28;86072;-48
2022/04/18 02:01:08;;;;;;;;;;;8.40;99.90;;;;;;10351328;28;86731;-48
2022/04/18 02:06:09;;;;;;;;;;;8.40;99.90;;;;;;10350973;28;86767;-46
2022/04/18 02:11:10;;;;;;;;;;;8.30;99.90;;;;;;10367976;28;84919;-49
2022/04/18 02:16:12;;;;;;;;;;;8.20;99.90;;;;;;10350114;28;86864;-48
2022/04/18 02:21:17;;;;;;;;;;;8.10;1.00;;;;;;10350749;28;85591;-52
2022/04/18 02:26:17;;;;;;;;;;;8.10;1.00;;;;;;10350799;28;87050;-48
2022/04/18 02:31:22;;;;;;;;;;;8.00;1.00;;;;;;10376994;22;86252;-50
2022/04/18 02:36:22;;;;;;;;;;;7.90;1.00;;;;;;10365872;28;87349;-51
2022/04/18 02:41:24;;;;;;;;;;;7.90;99.90;;;;;;10329696;28;86151;-48
2022/04/18 02:46:25;;;;;;;;;;;7.80;99.90;;;;;;10320232;28;84853;-47
2022/04/18 02:51:30;;;;;;;;;;;7.70;1.00;;;;;;10302959;28;86112;-51
2022/04/18 02:56:38;;;;;;;;;;;7.70;1.00;;;;;;10307178;28;86691;-46
2022/04/18 03:01:39;;;;;;;;;;;7.60;1.00;;;;;;10326303;28;86913;-49
2022/04/18 03:06:40;;;;;;;;;;;7.60;99.90;;;;;;10324507;28;85748;-51
2022/04/18 03:11:42;;;;;;;;;;;7.50;1.00;;;;;;10326081;28;86082;-45
2022/04/18 03:16:43;;;;;;;;;;;7.40;1.00;;;;;;10324322;28;86743;-49
2022/04/18 03:21:45;;;;;;;;;;;7.40;67.40;;;;;;10327848;28;86063;-46
2022/04/18 03:26:46;;;;;;;;;;;7.30;1.00;;;;;;10330860;28;86917;-46
2022/04/18 03:31:53;;;;;;;;;;;7.20;1.00;;;;;;10330717;28;85939;-47
2022/04/18 03:42:31;;;;;;;;;;;7.20;1.00;;;;;;10346389;28;84935;-46
2022/04/18 03:47:34;;;;;;;;;;;7.20;99.90;;;;;;10352605;28;86822;-47
2022/04/18 03:52:36;;;;;;;;;;;7.20;99.90;;;;;;10358990;28;86629;-46
2022/04/18 03:57:38;;;;;;;;;;;7.10;99.90;;;;;;10366209;28;86310;-46
2022/04/18 04:02:43;;;;;;;;;;;7.10;99.90;;;;;;10330465;28;86808;-46
2022/04/18 04:07:46;;;;;;;;;;;7.10;1.00;;;;;;10328893;28;85754;-46
2022/04/18 04:13:03;;;;;;;;;;;7.10;1.00;;;;;;10330032;28;85826;-46
2022/04/18 04:18:21;;;;;;;;;;;7.10;99.90;;;;;;10328997;28;87079;-47
2022/04/18 04:23:22;;;;;;;;;;;7.10;1.00;;;;;;10329695;28;86854;-48
2022/04/18 04:28:41;;;;;;;;;;;7.10;1.00;;;;;;10329514;28;84775;-47
2022/04/18 04:33:42;;;;;;;;;;;7.00;1.00;;;;;;10309179;28;85907;-45
2022/04/18 04:38:43;;;;;;;;;;;7.00;1.00;;;;;;10340408;28;86847;-44
2022/04/18 04:43:52;;;;;;;;;;;7.00;1.00;;;;;;10315378;28;86007;-47
2022/04/18 04:49:00;;;;;;;;;;;6.90;92.70;;;;;;10307920;28;85783;-49
2022/04/18 04:54:00;;;;;;;;;;;6.80;1.00;;;;;;10314244;28;83984;-45
2022/04/18 04:59:06;;;;;;;;;;;6.90;1.00;;;;;;10333846;28;85473;-52
2022/04/18 05:04:08;;;;;;;;;;;6.80;1.00;;;;;;10329547;28;86668;-47
2022/04/18 05:09:09;;;;;;;;;;;6.90;1.00;;;;;;10295509;28;86634;-46
2022/04/18 05:14:10;;;;;;;;;;;6.80;1.00;;;;;;10291087;28;85767;-46
2022/04/18 05:19:19;;;;;;;;;;;6.90;1.00;;;;;;10325019;28;86051;-46
2022/04/18 05:24:21;;;;;;;;;;;7.00;1.00;;;;;;10336960;28;85940;-46
2022/04/18 05:29:24;;;;;;;;;;;7.10;1.00;;;;;;10308582;28;86675;-49
2022/04/18 05:34:25;;;;;;;;;;;7.10;1.00;;;;;;10306353;28;86780;-45
2022/04/18 05:39:50;;;;;;;;;;;7.30;1.00;;;;;;10332868;28;86659;-46
2022/04/18 05:44:51;;;;;;;;;;;7.40;1.00;;;;;;10360536;28;85993;-48
2022/04/18 05:49:52;;;;;;;;;;;7.50;99.90;;;;;;10352091;28;85774;-50
2022/04/18 05:54:53;;;;;;;;;;;7.60;99.90;;;;;;10352347;28;86765;-49
2022/04/18 05:59:55;;;;;;;;;;;7.80;1.00;;;;;;10345090;28;86859;-50
2022/04/18 06:05:00;;;;;;;;;;;7.90;1.00;;;;;;10320156;28;85965;-46
2022/04/18 06:10:01;;;;;;;;;;;8.10;1.00;;;;;;10326737;28;84361;-50
2022/04/18 06:15:03;;;;;;;;;;;8.30;1.00;;;;;;10323768;28;85896;-48
2022/04/18 06:20:04;;;;;;;;;;;8.60;1.00;;;;;;10325842;28;84141;-54
2022/04/18 06:25:06;;;;;;;;;;;8.90;1.00;;;;;;10322625;28;86769;-54
2022/04/18 06:30:09;;;;;;;;;;;9.20;1.00;;;;;;10329589;28;87071;-44
2022/04/18 06:35:36;;;;;;;;;;;9.60;42.30;;;;;;10286416;28;84865;-53
2022/04/18 06:40:37;;;;;;;;;;;10.20;1.00;;;;;;10307519;28;86328;-46
2022/04/18 06:45:38;;;;;;;;;;;10.70;1.00;;;;;;10341125;28;86522;-50
2022/04/18 06:50:39;;;;;;;;;;;11.40;99.90;;;;;;10319524;28;86841;-47
2022/04/18 07:01:31;;;;;;;;;;;12.80;57.30;;;;;;10354371;28;85927;-48
2022/04/18 07:06:32;;;;;;;;;;;13.30;1.00;;;;;;10354629;28;85822;-47
2022/04/18 07:11:33;;;;;;;;;;;13.60;1.00;;;;;;10323180;28;86737;-46
2022/04/18 07:16:34;;;;;;;;;;;14.20;99.90;;;;;;10354793;28;86014;-49
2022/04/18 07:21:35;;;;;;;;;;;14.30;1.00;;;;;;10336765;28;87183;-46
2022/04/18 07:26:36;;;;;;;;;;;14.90;1.00;;;;;;10342961;28;84793;-47
2022/04/18 07:31:37;;;;;;;;;;;15.70;1.00;;;;;;10367403;28;86888;-45
2022/04/18 07:36:38;;;;;;;;;;;15.80;1.00;;;;;;10363841;28;85963;-52
2022/04/18 07:41:39;;;;;;;;;;;16.20;1.00;;;;;;10339299;28;84914;-43
2022/04/18 07:46:40;;;;;;;;;;;16.90;1.00;;;;;;10338705;28;86086;-44
2022/04/18 07:51:48;;;;;;;;;;;17.30;1.00;;;;;;10339526;28;85951;-47
2022/04/18 07:57:14;;;;;;;;;;;17.90;1.00;;;;;;10337764;28;85241;-50
2022/04/18 08:02:26;;;;;;;;;;;18.00;99.90;;;;;;10339366;28;86617;-49
2022/04/18 08:07:43;;;;;;;;;;;18.30;99.90;;;;;;10334566;28;85799;-47
2022/04/18 08:12:44;;;;;;;;;;;19.10;99.90;;;;;;10332308;28;85806;-51
2022/04/18 08:18:07;;;;;;;;;;;19.60;99.90;;;;;;10331700;28;84950;-47
2022/04/18 08:23:28;;;;;;;;;;;20.10;99.90;;;;;;10332753;28;86742;-47
2022/04/18 08:28:47;;;;;;;;;;;20.30;99.90;;;;;;10330302;28;84166;-48
2022/04/18 08:33:48;;;;;;;;;;;21.00;99.90;;;;;;10331934;28;86879;-46
2022/04/18 08:38:49;;;;;;;;;;;21.00;98.20;;;;;;10332484;28;84544;-45
2022/04/18 08:44:15;;;;;;;;;;;21.70;58.80;;;;;;10331971;28;85485;-46
2022/04/18 08:54:37;;;;;;;;;;;22.60;1.00;;;;;;10330481;28;86772;-46
2022/04/18 08:59:39;;;;;;;;;;;23.30;1.00;;;;;;10329244;28;86110;-48
2022/04/18 09:04:41;;;;;;;;;;;23.10;1.00;;;;;;10329425;28;85913;-51
2022/04/18 09:09:42;;;;;;;;;;;22.90;1.00;;;;;;10328769;28;86830;-46
2022/04/18 09:14:50;;;;;;;;;;;23.40;1.00;;;;;;10329785;28;86991;-47
2022/04/18 09:20:03;;;;;;;;;;;23.80;1.00;;;;;;10328938;28;84970;-49
2022/04/18 09:25:11;;;;;;;;;;;23.50;1.00;;;;;;10329292;28;85634;-46
2022/04/18 09:30:12;;;;;;;;;;;24.20;1.00;;;;;;10310985;28;84968;-47
2022/04/18 09:35:23;;;;;;;;;;;24.00;1.00;;;;;;10328559;28;86712;-48
2022/04/18 09:40:25;;;;;;;;;;;24.50;1.00;;;;;;10310132;28;85620;-45
2022/04/18 09:45:26;;;;;;;;;;;24.60;1.00;;;;;;10327934;28;86715;-47
2022/04/18 09:55:57;;;;;;;;;;;24.60;1.00;;;;;;10325795;28;86565;-47
2022/04/18 10:00:59;;;;;;;;;;;25.30;1.00;;;;;;10328182;28;84939;-51
2022/04/18 10:06:01;;;;;;;;;;;25.50;1.00;;;;;;10329749;28;84052;-52
2022/04/18 10:11:02;;;;;;;;;;;25.90;1.00;;;;;;10330299;28;83981;-49
2022/04/18 10:16:04;;;;;;;;;;;25.80;1.00;;;;;;10326756;28;84053;-49
2022/04/18 10:21:07;;;;;;;;;;;26.20;1.00;;;;;;10328592;28;84885;-49
2022/04/18 10:26:14;;;;;;;;;;;26.40;1.00;;;;;;10327173;28;84105;-46
2022/04/18 10:31:17;;;;;;;;;;;26.50;1.00;;;;;;10326050;28;84233;-47
2022/04/18 10:36:25;;;;;;;;;;;26.30;1.00;;;;;;10308946;28;85986;-47
2022/04/18 10:41:36;;;;;;;;;;;25.90;1.00;;;;;;10326134;28;85691;-47
2022/04/18 10:46:38;;;;;;;;;;;26.30;1.00;;;;;;10325239;28;84989;-45
2022/04/18 10:51:39;;;;;;;;;;;25.80;1.00;;;;;;10328203;28;85037;-48
2022/04/18 10:56:56;;;;;;;;;;;26.40;1.00;;;;;;10325614;28;85827;-45
2022/04/18 11:01:58;;;;;;;;;;;26.20;1.00;;;;;;10327066;28;84236;-47
2022/04/18 11:07:02;;;;;;;;;;;26.10;1.00;;;;;;10326481;28;84339;-45
2022/04/18 11:12:08;;;;;;;;;;;25.70;1.00;;;;;;10327045;28;84196;-48
2022/04/18 11:17:10;;;;;;;;;;;25.50;1.00;;;;;;10325741;28;85252;-45
2022/04/18 11:22:18;;;;;;;;;;;26.00;1.00;;;;;;10325321;28;85823;-45
2022/04/18 11:27:20;;;;;;;;;;;26.10;1.00;;;;;;10326102;28;84766;-47
2022/04/18 11:32:22;;;;;;;;;;;27.10;1.00;;;;;;10327859;28;85238;-45
2022/04/18 11:37:27;;;;;;;;;;;27.30;1.00;;;;;;10325986;28;84950;-45
2022/04/18 11:42:29;;;;;;;;;;;26.30;1.00;;;;;;10329578;28;84257;-47
2022/04/18 11:47:38;;;;;;;;;;;26.40;1.00;;;;;;10332613;28;84970;-45
2022/04/18 11:52:39;;;;;;;;;;;26.20;1.00;;;;;;10333613;28;84294;-45
2022/04/18 11:57:41;;;;;;;;;;;26.30;1.00;;;;;;10332099;28;84944;-52
2022/04/18 12:08:03;;;;;;;;;;;26.80;1.00;;;;;;10332634;28;84889;-46
2022/04/18 12:13:05;;;;;;;;;;;27.10;1.00;;;;;;10332193;28;84959;-48
2022/04/18 12:18:10;;;;;;;;;;;26.90;1.00;;;;;;10331943;28;84237;-45
2022/04/18 12:23:17;;;;;;;;;;;26.70;1.00;;;;;;10330317;28;84986;-47
2022/04/18 12:28:23;;;;;;;;;;;26.60;1.00;;;;;;10330723;28;84161;-46
2022/04/18 12:33:27;;;;;;;;;;;26.90;1.00;;;;;;10314222;28;87103;-47
2022/04/18 12:38:35;;;;;;;;;;;26.70;1.00;;;;;;10330388;28;84140;-47
2022/04/18 12:43:37;;;;;;;;;;;27.00;1.00;;;;;;10329918;28;86176;-45
2022/04/18 12:48:38;;;;;;;;;;;27.10;1.00;;;;;;10330412;28;84796;-51
2022/04/18 12:53:46;;;;;;;;;;;27.40;1.00;;;;;;10331098;28;84055;-49
2022/04/18 12:58:59;;;;;;;;;;;27.10;1.00;;;;;;10328882;28;85128;-51
2022/04/18 13:04:00;;;;;;;;;;;27.00;1.00;;;;;;10329737;28;84695;-49
2022/04/18 13:09:05;;;;;;;;;;;27.30;1.00;;;;;;10330409;28;84353;-47
2022/04/18 13:14:06;;;;;;;;;;;27.70;1.00;;;;;;10330648;28;84140;-49
2022/04/18 13:19:10;;;;;;;;;;;28.00;1.00;;;;;;10329001;28;85919;-46
2022/04/18 13:24:11;;;;;;;;;;;27.30;1.00;;;;;;10329371;28;85105;-55
2022/04/18 13:29:12;;;;;;;;;;;27.90;1.00;;;;;;10327292;28;84088;-47
2022/04/18 13:34:12;;;;;;;;;;;27.70;1.00;;;;;;10329168;28;83979;-48
2022/04/18 13:39:13;;;;;;;;;;;28.90;1.00;;;;;;10328242;28;84900;-47
2022/04/18 13:44:13;;;;;;;;;;;28.50;1.00;;;;;;10329140;28;84014;-50
2022/04/18 13:49:14;;;;;;;;;;;28.40;1.00;;;;;;10327905;28;84127;-48
2022/04/18 13:54:15;;;;;;;;;;;28.50;1.00;;;;;;10328373;28;84116;-50
2022/04/18 13:59:17;;;;;;;;;;;28.70;1.00;;;;;;10327298;28;84991;-49
2022/04/18 14:04:17;;;;;;;;;;;27.70;1.00;;;;;;10328631;28;84260;-48
2022/04/18 14:09:18;;;;;;;;;;;28.20;1.00;;;;;;10329085;28;85313;-45
2022/04/18 14:24:57;;;;;;;;;;;27.30;1.00;;;;;;10328832;28;84114;-50
2022/04/18 14:29:58;;;;;;;;;;;26.60;1.00;;;;;;10373342;22;84947;-62
2022/04/18 14:34:58;;;;;;;;;;;25.70;1.00;;;;;;10360885;28;86093;-62
2022/04/18 14:39:59;;;;;;;;;;;24.50;1.00;;;;;;10377729;28;84966;-62
2022/04/18 14:45:00;;;;;;;;;;;24.20;1.00;;;;;;10353395;28;87082;-63
2022/04/18 14:50:01;;;;;;;;;;;23.90;1.00;;;;;;10371968;28;84017;-62
2022/04/18 14:55:02;;;;;;;;;;;23.00;1.00;;;;;;10371415;28;84110;-61
2022/04/18 15:00:03;;;;;;;;;;;22.30;1.00;;;;;;10370576;28;85529;-61
2022/04/18 15:05:04;;;;;;;;;;;21.90;1.00;;;;;;10371515;28;84349;-62
2022/04/18 15:10:05;;;;;;;;;;;21.50;1.00;;;;;;10347718;28;85935;-62
2022/04/18 15:15:05;;;;;;;;;;;21.30;1.00;;;;;;10364730;28;85301;-61
2022/04/18 15:20:06;;;;;;;;;;;21.20;1.00;;;;;;10371534;28;85787;-62
2022/04/18 15:25:07;;;;;;;;;;;21.00;1.00;;;;;;10369998;28;85019;-63
2022/04/18 15:35:27;;;;;;;;;;;20.50;1.00;;;;;;10361465;28;84876;-59
2022/04/18 15:40:28;;;;;;;;;;;20.20;1.00;;;;;;10375651;28;85700;-61
2022/04/18 15:45:28;;;;;;;;;;;20.10;1.00;;;;;;10375218;28;85002;-66
2022/04/18 15:50:32;;;;;;;;;;;19.90;1.00;;;;;;10391096;28;84191;-58
2022/04/18 15:55:32;;;;;;;;;;;19.90;1.00;;;;;;10351139;28;84629;-61
2022/04/18 16:00:33;;;;;;;;;;;19.80;1.00;;;;;;10369696;28;84841;-61
2022/04/18 16:05:33;;;;;;;;;;;19.70;1.00;;;;;;10371057;28;85107;-61
2022/04/18 16:10:34;;;;;;;;;;;19.70;1.00;;;;;;10369325;28;84910;-62
2022/04/18 16:15:35;;;;;;;;;;;19.70;1.00;;;;;;10351369;28;84806;-64
2022/04/18 16:20:35;;;;;;;;;;;19.60;1.00;;;;;;10365931;28;84751;-64
2022/04/18 16:25:36;;;;;;;;;;;19.50;1.00;;;;;;10359614;28;84714;-64
2022/04/18 16:35:56;;;;;;;;;;;19.40;1.00;;;;;;10363659;28;84914;-57
2022/04/18 16:46:16;;;;;;;;;;;19.20;1.00;;;;;;10379240;28;84187;-61
2022/04/18 16:51:17;;;;;;;;;;;19.00;1.00;;;;;;10353668;28;84863;-62
2022/04/18 16:56:17;;;;;;;;;;;18.90;1.00;;;;;;10368385;28;84313;-61
2022/04/18 17:01:18;;;;;;;;;;;18.80;1.00;;;;;;10407366;28;84865;-60
2022/04/18 17:06:19;;;;;;;;;;;18.80;1.00;;;;;;10367724;28;84113;-61
2022/04/18 17:11:20;;;;;;;;;;;18.70;1.00;;;;;;10369445;28;84909;-61
2022/04/18 17:16:20;;;;;;;;;;;18.60;1.00;;;;;;10366019;28;84878;-61
2022/04/18 17:21:21;;;;;;;;;;;18.60;1.00;;;;;;10361046;28;85280;-59
2022/04/18 17:26:21;;;;;;;;;;;18.40;1.00;;;;;;10356126;28;86110;-60
2022/04/18 17:31:22;;;;;;;;;;;18.30;1.00;;;;;;10355412;28;84547;-59
2022/04/18 17:36:23;;;;;;;;;;;18.20;1.00;;;;;;10366525;28;84568;-57
2022/04/18 17:41:23;;;;;;;;;;;18.10;1.00;;;;;;10348465;28;84925;-57
2022/04/18 17:46:24;;;;;;;;;;;17.90;1.00;;;;;;10342603;28;87004;-56
2022/04/18 17:51:24;;;;;;;;;;;17.90;1.00;;;;;;10367683;28;84451;-58
2022/04/18 17:56:26;;;;;;;;;;;17.80;1.00;;;;;;10367561;28;84564;-58
2022/04/18 18:01:27;;;;;;;;;;;17.70;1.00;;;;;;10366652;28;84904;-58
2022/04/18 18:06:28;;;;;;;;;;;17.50;1.00;;;;;;10344875;28;84457;-58
2022/04/18 18:11:28;;;;;;;;;;;17.40;1.00;;;;;;10326548;28;84308;-59
2022/04/18 18:16:29;;;;;;;;;;;17.30;1.00;;;;;;10320675;28;85993;-60
2022/04/18 18:21:30;;;;;;;;;;;17.20;1.00;;;;;;10365917;28;84098;-60
2022/04/18 18:26:30;;;;;;;;;;;17.00;1.00;;;;;;10357659;28;84952;-59
2022/04/18 18:31:34;;;;;;;;;;;16.80;1.00;;;;;;10356164;28;85200;-53
2022/04/18 18:36:35;;;;;;;;;;;16.70;1.00;;;;;;10345820;28;85096;-56
2022/04/18 18:41:35;;;;;;;;;;;16.60;1.00;;;;;;10365717;28;84316;-58
2022/04/18 18:46:36;;;;;;;;;;;16.40;1.00;;;;;;10361213;28;84412;-58
2022/04/18 18:56:55;;;;;;;;;;;16.10;1.00;;;;;;10343377;28;86309;-57
2022/04/18 19:01:56;;;;;;;;;;;16.00;1.00;;;;;;10363469;28;84235;-60
2022/04/18 19:06:57;;;;;;;;;;;15.80;1.00;;;;;;10362380;28;84290;-56
2022/04/18 19:11:58;;;;;;;;;;;15.70;1.00;;;;;;10366066;28;84064;-59
2022/04/18 19:27:37;;;;;;;;;;;15.40;1.00;;;;;;10367286;28;84586;-57
2022/04/18 19:32:38;;;;;;;;;;;15.20;1.00;;;;;;10367534;28;88661;-58
2022/04/18 19:37:39;;;;;;;;;;;15.10;1.00;;;;;;10365425;28;84508;-57
2022/04/18 19:42:39;;;;;;;;;;;14.90;1.00;;;;;;10348691;28;84171;-59
2022/04/18 19:47:40;;;;;;;;;;;14.80;1.00;;;;;;10367495;28;84224;-61
2022/04/18 19:52:40;;;;;;;;;;;14.70;1.00;;;;;;10351087;28;84556;-58
2022/04/18 19:57:41;;;;;;;;;;;14.60;1.00;;;;;;10370953;28;84998;-60
2022/04/18 20:02:41;;;;;;;;;;;14.60;1.00;;;;;;10371120;28;85414;-55
2022/04/18 20:07:42;;;;;;;;;;;14.50;1.00;;;;;;10353354;28;85053;-54
2022/04/18 20:12:48;;;;;;;;;;;14.40;1.00;;;;;;10337972;28;84490;-57
2022/04/18 20:17:49;;;;;;;;;;;14.30;1.00;;;;;;10366017;28;84197;-57
2022/04/18 20:22:49;;;;;;;;;;;14.20;1.00;;;;;;10374225;28;84739;-58
2022/04/18 20:33:23;;;;;;;;;;;14.00;1.00;;;;;;10288520;28;84173;-51
2022/04/18 20:38:23;;;;;;;;;;;13.90;1.00;;;;;;10289737;28;84084;-55
2022/04/18 20:43:24;;;;;;;;;;;13.80;1.00;;;;;;10290704;28;84893;-49
2022/04/18 20:48:28;;;;;;;;;;;13.70;1.00;;;;;;10270680;28;86449;-49
2022/04/18 20:58:48;;;;;;;;;;;13.50;1.00;;;;;;10273173;28;84150;-50
2022/04/18 21:03:49;;;;;;;;;;;13.40;1.00;;;;;;10272390;28;84266;-49
2022/04/18 21:08:50;;;;;;;;;;;13.30;1.00;;;;;;10289997;28;84802;-50
2022/04/18 21:13:51;;;;;;;;;;;13.20;1.00;;;;;;10271798;28;87011;-49
2022/04/18 21:18:51;;;;;;;;;;;13.10;1.00;;;;;;10288038;28;85361;-49
2022/04/18 21:23:52;;;;;;;;;;;13.00;1.00;;;;;;10272163;28;84979;-52
2022/04/18 21:28:52;;;;;;;;;;;12.90;1.00;;;;;;10288558;28;85277;-51
2022/04/18 21:33:53;;;;;;;;;;;12.90;1.00;;;;;;10271724;28;85976;-51
2022/04/18 21:38:53;;;;;;;;;;;12.80;1.00;;;;;;10289602;28;84206;-52
2022/04/18 21:43:54;;;;;;;;;;;12.70;1.00;;;;;;10271052;28;87387;-48
2022/04/18 21:48:54;;;;;;;;;;;12.60;20.50;;;;;;10289655;28;84121;-52
2022/04/18 21:53:55;;;;;;;;;;;12.50;99.90;;;;;;10289631;28;84151;-49
2022/04/18 21:58:56;;;;;;;;;;;12.50;99.90;;;;;;10271158;28;84421;-48
2022/04/18 22:03:56;;;;;;;;;;;12.40;99.90;;;;;;10289147;28;85328;-54
2022/04/18 22:08:58;;;;;;;;;;;12.30;99.90;;;;;;10288344;28;84207;-50
2022/04/18 22:13:59;;;;;;;;;;;12.30;1.00;;;;;;10288994;28;85039;-50
2022/04/18 22:29:39;;;;;;;;;;;12.10;1.00;;;;;;10286227;28;84084;-48
2022/04/18 22:34:39;;;;;;;;;;;12.00;1.00;;;;;;10270312;28;84053;-49
2022/04/18 22:39:40;;;;;;;;;;;11.90;1.00;;;;;;10286415;28;85504;-49
2022/04/18 22:44:43;;;;;;;;;;;11.80;1.00;;;;;;10285422;28;84059;-53
2022/04/18 22:49:47;;;;;;;;;;;11.70;1.00;;;;;;10285846;28;84773;-51
2022/04/18 22:54:48;;;;;;;;;;;11.70;99.90;;;;;;10269080;28;85079;-49
2022/04/18 22:59:49;;;;;;;;;;;11.70;1.00;;;;;;10267570;28;84393;-50
2022/04/18 23:10:10;;;;;;;;;;;11.50;1.00;;;;;;10286461;28;84258;-49
2022/04/18 23:15:11;;;;;;;;;;;11.40;1.00;;;;;;10268348;28;84024;-50
2022/04/18 23:20:12;;;;;;;;;;;11.30;1.00;;;;;;10266056;28;86889;-49
2022/04/18 23:25:13;;;;;;;;;;;11.30;1.00;;;;;;10285519;28;84941;-53
2022/04/18 23:30:14;;;;;;;;;;;11.10;1.00;;;;;;10284150;28;85018;-50
2022/04/18 23:35:15;;;;;;;;;;;11.10;99.90;;;;;;10285165;28;84758;-49
2022/04/18 23:45:34;;;;;;;;;;;11.00;1.00;;;;;;10291491;28;84975;-51
2022/04/18 23:50:50;;;;;;;;;;;11.00;1.00;;;;;;10291870;28;84167;-48
2022/04/18 23:55:52;;;;;;;;;;;10.90;99.90;;;;;;10291074;28;84990;-50
